createdAt,value
2022-12-05T00:03:54.503Z,3.52
2022-12-05T00:08:57.381Z,3.74
2022-12-05T00:14:00.398Z,3.62
2022-12-05T00:19:03.382Z,3.63
2022-12-05T00:24:07.617Z,3.78
2022-12-05T00:29:09.128Z,3.53
2022-12-05T00:34:10.691Z,3.61
2022-12-05T00:39:13.279Z,3.51
2022-12-05T00:44:14.665Z,3.21
2022-12-05T00:49:16.241Z,3.35
2022-12-05T00:54:17.857Z,3.53
2022-12-05T00:59:20.064Z,3.27
2022-12-05T01:04:25.561Z,3.09
2022-12-05T01:09:27.062Z,3.04
2022-12-05T01:14:28.509Z,3.24
2022-12-05T01:19:32.265Z,3.60
2022-12-05T01:24:33.724Z,3.68
2022-12-05T01:29:35.141Z,3.39
2022-12-05T01:34:36.554Z,3.49
2022-12-05T01:39:38.012Z,3.48
2022-12-05T01:44:39.393Z,3.48
2022-12-05T01:49:42.198Z,3.34
2022-12-05T01:54:46.399Z,3.46
2022-12-05T01:59:56.050Z,3.42
2022-12-05T02:05:03.473Z,3.53
2022-12-05T02:10:06.748Z,3.53
2022-12-05T02:15:32.610Z,3.39
2022-12-05T02:21:01.771Z,3.41
2022-12-05T02:26:35.355Z,3.62
2022-12-05T02:31:47.448Z,3.28
2022-12-05T02:37:00.208Z,3.08
2022-12-05T02:42:09.960Z,3.40
2022-12-05T02:47:15.807Z,3.54
2022-12-05T02:52:17.935Z,3.46
2022-12-05T02:57:21.650Z,3.66
2022-12-05T03:02:30.623Z,3.16
2022-12-05T03:07:33.030Z,3.46
2022-12-05T03:12:41.619Z,3.71
2022-12-05T03:17:58.547Z,3.38
2022-12-05T03:23:09.162Z,3.61
2022-12-05T03:28:29.252Z,3.68
2022-12-05T03:33:40.550Z,3.46
2022-12-05T03:38:47.171Z,3.56
2022-12-05T03:44:24.604Z,3.27
2022-12-05T03:49:42.802Z,3.47
2022-12-05T03:54:50.031Z,3.62
2022-12-05T03:59:54.456Z,3.40
2022-12-05T04:05:10.005Z,3.32
2022-12-05T04:10:20.229Z,3.53
2022-12-05T04:15:28.558Z,3.31
2022-12-05T04:20:38.790Z,3.48
2022-12-05T04:26:07.308Z,3.59
2022-12-05T04:31:12.226Z,3.60
2022-12-05T04:36:25.580Z,3.57
2022-12-05T04:41:36.364Z,3.34
2022-12-05T04:46:41.745Z,3.50
2022-12-05T04:51:46.008Z,3.41
2022-12-05T04:56:50.148Z,3.52
2022-12-05T05:01:58.107Z,3.57
2022-12-05T05:07:00.008Z,3.42
2022-12-05T05:12:01.756Z,3.46
2022-12-05T05:17:03.827Z,3.55
2022-12-05T05:22:05.376Z,3.25
2022-12-05T05:27:06.896Z,3.42
2022-12-05T05:32:08.376Z,3.52
2022-12-05T05:37:09.928Z,3.48
2022-12-05T05:42:11.436Z,3.51
2022-12-05T05:47:12.936Z,3.57
2022-12-05T05:52:14.336Z,3.67
2022-12-05T05:57:20.224Z,3.45
2022-12-05T06:02:22.172Z,3.44
2022-12-05T06:07:23.643Z,3.60
2022-12-05T06:12:25.198Z,3.53
2022-12-05T06:17:26.618Z,3.34
2022-12-05T06:22:29.210Z,3.33
2022-12-05T06:27:31.631Z,3.45
2022-12-05T06:32:33.024Z,3.27
2022-12-05T06:37:36.608Z,3.45
2022-12-05T06:42:38.166Z,3.66
2022-12-05T06:47:39.718Z,3.97
2022-12-05T06:52:41.172Z,3.85
2022-12-05T06:57:42.616Z,3.52
2022-12-05T07:02:44.247Z,3.58
2022-12-05T07:07:46.559Z,3.52
2022-12-05T07:12:48.170Z,3.69
2022-12-05T07:17:49.574Z,3.49
2022-12-05T07:22:51.101Z,3.67
2022-12-05T07:27:52.599Z,3.49
2022-12-05T07:32:54.097Z,3.66
2022-12-05T07:37:55.616Z,3.65
2022-12-05T07:42:57.236Z,3.63
2022-12-05T07:47:59.933Z,3.45
2022-12-05T07:53:01.509Z,3.35
2022-12-05T07:58:02.985Z,3.24
2022-12-05T08:03:04.456Z,3.44
2022-12-05T08:08:06.116Z,3.78
2022-12-05T08:13:07.704Z,3.82
2022-12-05T08:18:09.198Z,3.79
2022-12-05T08:23:10.692Z,3.83
2022-12-05T08:28:12.298Z,3.88
2022-12-05T08:33:13.831Z,3.69
2022-12-05T08:38:15.263Z,3.69
2022-12-05T08:43:16.712Z,3.83
2022-12-05T08:48:18.539Z,3.82
2022-12-05T08:53:20.157Z,3.92
2022-12-05T08:58:21.636Z,4.13
2022-12-05T09:03:23.165Z,4.18
2022-12-05T09:08:24.773Z,4.13
2022-12-05T09:13:26.605Z,4.12
2022-12-05T09:18:28.254Z,3.86
2022-12-05T09:23:30.181Z,4.03
2022-12-05T09:28:32.541Z,4.04
2022-12-05T09:33:36.386Z,3.84
2022-12-05T09:38:38.036Z,4.09
2022-12-05T09:44:02.784Z,4.07
2022-12-05T09:49:05.401Z,4.24
2022-12-05T09:54:10.048Z,4.08
2022-12-05T09:59:14.188Z,4.12
2022-12-05T10:04:46.677Z,4.40
2022-12-05T10:10:00.607Z,4.19
2022-12-05T10:15:16.279Z,4.45
2022-12-05T10:20:27.950Z,4.51
2022-12-05T10:25:32.416Z,4.76
2022-12-05T10:30:34.863Z,4.89
2022-12-05T10:35:39.364Z,5.05
2022-12-05T10:40:44.891Z,5.12
2022-12-05T10:45:47.991Z,5.31
2022-12-05T10:50:51.769Z,5.21
2022-12-05T10:56:28.728Z,5.14
2022-12-05T11:01:23.522Z,5.24
2022-12-05T11:06:30.940Z,5.33
2022-12-05T11:11:33.882Z,5.41
2022-12-05T11:16:39.134Z,5.40
2022-12-05T11:21:44.257Z,5.25
2022-12-05T11:26:45.879Z,5.38
2022-12-05T11:31:52.039Z,5.39
2022-12-05T11:36:58.425Z,5.49
2022-12-05T11:42:41.728Z,5.43
2022-12-05T11:48:02.985Z,5.42
2022-12-05T11:53:15.041Z,5.25
2022-12-05T12:03:53.490Z,5.65
2022-12-05T12:09:10.221Z,5.71
2022-12-05T12:14:45.924Z,5.63
2022-12-05T12:20:09.107Z,5.72
2022-12-05T12:25:16.373Z,5.64
2022-12-05T12:30:22.052Z,5.65
2022-12-05T12:35:56.689Z,5.64
2022-12-05T12:41:10.504Z,5.60
2022-12-05T12:46:25.452Z,5.69
2022-12-05T12:51:31.113Z,5.69
2022-12-05T12:57:13.870Z,5.48
2022-12-05T13:02:31.983Z,5.51
2022-12-05T13:07:46.692Z,5.60
2022-12-05T13:12:49.187Z,5.58
2022-12-05T13:17:51.600Z,5.66
2022-12-05T13:22:54.308Z,5.69
2022-12-05T13:28:00.091Z,5.69
2022-12-05T13:33:04.405Z,5.66
2022-12-05T13:38:06.002Z,5.76
2022-12-05T13:43:08.888Z,5.72
2022-12-05T13:48:22.636Z,5.79
2022-12-05T13:53:39.407Z,5.70
2022-12-05T13:58:58.241Z,5.68
2022-12-05T14:04:04.035Z,5.77
2022-12-05T14:09:17.606Z,5.75
2022-12-05T14:14:56.450Z,5.71
2022-12-05T14:20:22.654Z,5.58
2022-12-05T14:25:54.635Z,5.70
2022-12-05T14:31:16.676Z,5.62
2022-12-05T14:36:22.998Z,5.62
2022-12-05T14:41:35.267Z,5.59
2022-12-05T14:46:36.889Z,5.64
2022-12-05T14:51:41.264Z,5.68
2022-12-05T14:56:45.633Z,5.74
2022-12-05T15:01:52.219Z,5.70
2022-12-05T15:06:57.696Z,5.66
2022-12-05T15:12:04.787Z,5.70
2022-12-05T15:17:15.676Z,5.76
2022-12-05T15:22:21.164Z,5.75
2022-12-05T15:27:22.704Z,5.68
2022-12-05T15:32:27.030Z,5.72
2022-12-05T15:37:48.010Z,5.82
2022-12-05T15:42:56.972Z,5.73
2022-12-05T15:48:07.378Z,5.78
2022-12-05T15:53:11.724Z,5.86
2022-12-05T15:58:45.484Z,5.77
2022-12-05T16:03:55.508Z,5.51
2022-12-05T16:08:59.418Z,5.60
2022-12-05T16:14:06.671Z,5.49
2022-12-05T16:19:22.992Z,5.39
2022-12-05T16:24:29.869Z,5.47
2022-12-05T16:29:34.051Z,5.39
2022-12-05T16:34:35.492Z,5.32
2022-12-05T16:39:36.934Z,5.21
2022-12-05T16:44:47.454Z,5.28
2022-12-05T16:49:48.966Z,5.21
2022-12-05T16:54:50.496Z,5.24
2022-12-05T16:59:51.967Z,5.26
2022-12-05T17:04:53.487Z,5.27
2022-12-05T17:09:55.089Z,5.19
2022-12-05T17:14:56.756Z,5.08
2022-12-05T17:19:58.369Z,5.11
2022-12-05T17:25:00.241Z,5.05
2022-12-05T17:30:02.001Z,5.09
2022-12-05T17:35:13.575Z,5.05
2022-12-05T17:40:15.188Z,5.06
2022-12-05T17:45:16.680Z,4.89
2022-12-05T17:50:20.849Z,4.96
2022-12-05T17:55:23.580Z,5.02
2022-12-05T18:00:25.113Z,5.07
2022-12-05T18:05:26.615Z,4.96
2022-12-05T18:10:28.182Z,5.04
2022-12-05T18:15:29.668Z,5.26
2022-12-05T18:20:31.249Z,5.24
2022-12-05T18:25:32.676Z,5.28
2022-12-05T18:30:34.264Z,5.28
2022-12-05T18:35:40.999Z,5.22
2022-12-05T18:40:42.454Z,5.14
2022-12-05T18:45:43.901Z,5.28
2022-12-05T18:50:45.294Z,5.11
2022-12-05T18:56:05.232Z,4.96
2022-12-05T19:01:13.798Z,5.02
2022-12-05T19:06:26.417Z,5.06
2022-12-05T19:11:28.614Z,4.97
2022-12-05T19:16:32.877Z,5.02
2022-12-05T19:21:36.262Z,5.03
2022-12-05T19:26:37.947Z,4.97
2022-12-05T19:31:39.953Z,4.90
2022-12-05T19:36:43.923Z,5.17
2022-12-05T19:41:46.032Z,5.15
2022-12-05T19:46:48.568Z,5.24
2022-12-05T19:51:50.044Z,5.24
2022-12-05T19:56:51.557Z,5.24
2022-12-05T20:01:53.113Z,5.16
2022-12-05T20:06:54.680Z,5.25
2022-12-05T20:11:56.268Z,5.33
2022-12-05T20:16:57.857Z,5.21
2022-12-05T20:21:59.444Z,5.18
2022-12-05T20:27:00.895Z,5.38
2022-12-05T20:32:02.344Z,5.47
2022-12-05T20:37:03.870Z,5.51
2022-12-05T20:42:05.620Z,5.40
2022-12-05T20:47:07.235Z,5.15
2022-12-05T20:52:08.746Z,4.97
2022-12-05T20:57:10.181Z,5.09
2022-12-05T21:02:11.675Z,5.22
2022-12-05T21:07:13.166Z,5.26
2022-12-05T21:12:14.607Z,5.19
2022-12-05T21:17:16.091Z,5.08
2022-12-05T21:22:17.613Z,5.04
2022-12-05T21:27:19.033Z,5.08
2022-12-05T21:32:20.542Z,5.19
2022-12-05T21:37:22.035Z,4.94
2022-12-05T21:42:23.458Z,5.00
2022-12-05T21:47:25.692Z,5.12
2022-12-05T21:52:27.175Z,5.05
2022-12-05T21:57:29.339Z,5.07
2022-12-05T22:02:30.847Z,5.04
2022-12-05T22:07:32.458Z,5.19
2022-12-05T22:12:34.335Z,5.32
2022-12-05T22:17:36.094Z,5.33
2022-12-05T22:22:37.751Z,5.34
2022-12-05T22:27:39.311Z,5.41
2022-12-05T22:32:40.733Z,5.14
2022-12-05T22:37:42.211Z,5.02
2022-12-05T22:42:43.828Z,5.23
2022-12-05T22:47:45.267Z,5.33
2022-12-05T22:52:46.716Z,5.47
2022-12-05T22:57:48.163Z,5.37
2022-12-05T23:02:49.649Z,5.32
2022-12-05T23:07:51.152Z,5.33
2022-12-05T23:12:52.647Z,5.25
2022-12-05T23:17:56.931Z,5.21
2022-12-05T23:22:58.388Z,5.19
2022-12-05T23:27:59.860Z,5.05
2022-12-05T23:33:01.327Z,5.12
2022-12-05T23:38:02.771Z,5.09
2022-12-05T23:43:04.428Z,5.28
2022-12-05T23:48:05.929Z,5.24
2022-12-05T23:53:07.328Z,5.06
2022-12-05T23:58:08.783Z,5.20
